Time;durP1;ratioP1;P1;durP2;ratioP2;P2;SDS_P1;SDS_P2;PMS_P1;PMS_P2;Temp;Humidity;BMP_temperature;BMP_pressure;BME280_temperature;BME280_humidity;BME280_pressure;Samples;Min_cycle;Max_cycle;Signal;HPM_P1;HPM_P2
2023/10/23 00:02:38;0.00;0.00;0.62;0.00;0.00;0.62;1.87;1.53;;;23.60;28.20;;;;;;2272701;61;20896;-60
2023/10/23 00:05:23;0.00;0.00;0.62;0.00;0.00;0.62;2.60;1.70;;;23.60;28.20;;;;;;2272148;61;20458;-60
2023/10/23 00:08:07;0.00;0.00;0.62;0.00;0.00;0.62;1.97;1.50;;;23.60;28.20;;;;;;2272101;61;20454;-59
2023/10/23 00:10:52;0.00;0.00;0.62;0.00;0.00;0.62;2.20;1.67;;;23.60;28.20;;;;;;2272572;61;20401;-60
2023/10/23 00:13:41;0.00;0.00;0.62;0.00;0.00;0.62;2.30;1.80;;;23.60;28.20;;;;;;2272747;61;20385;-60
2023/10/23 00:16:26;0.00;0.00;0.62;0.00;0.00;0.62;1.90;1.40;;;23.60;28.20;;;;;;2272500;61;20363;-60
2023/10/23 00:19:10;0.00;0.00;0.62;0.00;0.00;0.62;2.30;1.73;;;23.60;28.30;;;;;;2272437;61;20362;-61
2023/10/23 00:21:55;0.00;0.00;0.62;0.00;0.00;0.62;2.67;1.70;;;23.60;28.20;;;;;;2272471;61;20552;-61
2023/10/23 00:24:40;0.00;0.00;0.62;0.00;0.00;0.62;2.00;1.40;;;23.50;28.20;;;;;;2272592;61;20464;-62
2023/10/23 00:27:24;0.00;0.00;0.62;0.00;0.00;0.62;2.20;1.67;;;23.60;28.20;;;;;;2272362;61;20424;-59
2023/10/23 00:30:11;0.00;0.00;0.62;0.00;0.00;0.62;2.47;1.63;;;23.60;28.20;;;;;;2271606;61;20803;-61
2023/10/23 00:32:56;0.00;0.00;0.62;0.00;0.00;0.62;2.00;1.20;;;23.50;28.70;;;;;;2272347;61;20390;-59
2023/10/23 00:35:40;0.00;0.00;0.62;0.00;0.00;0.62;1.90;1.33;;;23.50;28.20;;;;;;2272586;61;20394;-60
2023/10/23 00:38:27;0.00;0.00;0.62;0.00;0.00;0.62;2.10;1.60;;;23.50;28.20;;;;;;2271654;61;20898;-60
2023/10/23 00:41:12;0.00;0.00;0.62;0.00;0.00;0.62;2.30;1.77;;;23.50;28.20;;;;;;2272792;61;20395;-66
2023/10/23 00:43:57;0.00;0.00;0.62;0.00;0.00;0.62;1.97;1.50;;;23.50;28.20;;;;;;2268768;61;20504;-61
2023/10/23 00:46:43;0.00;0.00;0.62;0.00;0.00;0.62;2.43;1.93;;;23.50;28.20;;;;;;2272151;61;20427;-57
2023/10/23 00:49:28;0.00;0.00;0.62;0.00;0.00;0.62;2.00;1.33;;;23.50;28.20;;;;;;2271785;61;20815;-58
2023/10/23 00:52:13;0.00;0.00;0.62;0.00;0.00;0.62;2.53;1.47;;;23.50;28.20;;;;;;2272799;61;20432;-59
2023/10/23 00:54:58;0.00;0.00;0.62;0.00;0.00;0.62;1.83;1.30;;;23.50;28.20;;;;;;2273243;61;20903;-58
2023/10/23 00:57:43;0.00;0.00;0.62;0.00;0.00;0.62;2.50;1.40;;;23.50;28.20;;;;;;2273150;61;20388;-59
2023/10/23 01:00:29;0.00;0.00;0.62;0.00;0.00;0.62;3.07;1.47;;;23.50;28.20;;;;;;2269218;61;20886;-59
2023/10/23 01:03:14;0.00;0.00;0.62;0.00;0.00;0.62;1.90;1.17;;;23.50;28.20;;;;;;2274455;60;20795;-62
2023/10/23 01:05:59;0.00;0.00;0.62;0.00;0.00;0.62;1.93;1.33;;;23.50;28.20;;;;;;2266019;60;20374;-60
2023/10/23 01:08:44;0.00;0.00;0.62;0.00;0.00;0.62;2.27;1.40;;;23.50;28.20;;;;;;2272787;60;20412;-58
2023/10/23 01:11:29;0.00;0.00;0.62;0.00;0.00;0.62;1.83;1.10;;;23.50;28.20;;;;;;2272597;60;20926;-58
2023/10/23 01:14:14;0.00;0.00;0.62;0.00;0.00;0.62;1.87;1.47;;;23.50;28.20;;;;;;2272318;60;20389;-58
2023/10/23 01:16:58;0.00;0.00;0.62;0.00;0.00;0.62;1.77;1.17;;;23.50;28.20;;;;;;2273147;60;20416;-60
2023/10/23 01:19:44;0.00;0.00;0.62;0.00;0.00;0.62;1.87;1.23;;;23.50;28.20;;;;;;2272813;60;20416;-58
2023/10/23 01:22:29;0.00;0.00;0.62;0.00;0.00;0.62;1.73;1.30;;;23.50;28.20;;;;;;2272441;60;20785;-59
2023/10/23 01:25:16;0.00;0.00;0.62;0.00;0.00;0.62;1.63;1.20;;;23.50;28.30;;;;;;2273174;60;20390;-63
2023/10/23 01:28:01;0.00;0.00;0.62;0.00;0.00;0.62;2.13;1.40;;;23.50;28.20;;;;;;2272441;60;20408;-61
2023/10/23 01:30:45;0.00;0.00;0.62;0.00;0.00;0.62;1.97;1.20;;;23.50;28.20;;;;;;2273116;60;20414;-58
2023/10/23 01:33:30;0.00;0.00;0.62;0.00;0.00;0.62;2.00;1.40;;;23.50;28.30;;;;;;2273275;60;20387;-61
2023/10/23 01:36:14;0.00;0.00;0.62;0.00;0.00;0.62;2.20;1.20;;;23.50;28.20;;;;;;2272838;60;20906;-61
2023/10/23 01:38:59;0.00;0.00;0.62;0.00;0.00;0.62;1.60;1.07;;;23.50;28.20;;;;;;2272615;60;20361;-62
2023/10/23 01:41:45;0.00;0.00;0.62;0.00;0.00;0.62;1.90;1.20;;;23.50;28.30;;;;;;2273153;60;20362;-60
2023/10/23 01:44:31;0.00;0.00;0.62;0.00;0.00;0.62;1.57;1.07;;;23.50;28.30;;;;;;2272962;60;20390;-64
2023/10/23 01:47:15;0.00;0.00;0.62;0.00;0.00;0.62;1.77;1.20;;;23.50;28.20;;;;;;2272390;61;20822;-61
2023/10/23 01:50:00;0.00;0.00;0.62;0.00;0.00;0.62;2.10;1.20;;;23.50;28.30;;;;;;2272661;61;20460;-61
2023/10/23 01:52:45;0.00;0.00;0.62;0.00;0.00;0.62;2.00;1.20;;;23.50;28.30;;;;;;2273099;61;20952;-59
2023/10/23 01:55:30;0.00;0.00;0.62;0.00;0.00;0.62;1.77;1.30;;;23.50;28.30;;;;;;2272808;60;20402;-59
2023/10/23 01:58:16;0.00;0.00;0.62;0.00;0.00;0.62;1.70;1.10;;;23.50;28.30;;;;;;2271887;61;20366;-62
2023/10/23 02:01:01;0.00;0.00;0.62;0.00;0.00;0.62;1.97;1.30;;;23.50;28.30;;;;;;2272564;61;20385;-62
2023/10/23 02:03:46;0.00;0.00;0.62;0.00;0.00;0.62;1.50;1.10;;;23.40;28.20;;;;;;2272581;61;20404;-61
2023/10/23 02:06:31;0.00;0.00;0.62;0.00;0.00;0.62;1.80;1.20;;;23.40;28.20;;;;;;2272710;60;20964;-59
2023/10/23 02:09:16;0.00;0.00;0.62;0.00;0.00;0.62;1.60;1.07;;;23.50;28.30;;;;;;2272166;60;20896;-57
2023/10/23 02:12:01;0.00;0.00;0.62;0.00;0.00;0.62;2.00;1.30;;;23.40;28.20;;;;;;2272363;60;20477;-57
2023/10/23 02:14:50;0.00;0.00;0.62;0.00;0.00;0.62;2.13;1.30;;;23.40;28.20;;;;;;2272951;60;20362;-61
2023/10/23 02:17:34;0.00;0.00;0.62;0.00;0.00;0.62;1.90;1.23;;;23.40;28.20;;;;;;2272400;60;20764;-57
2023/10/23 02:20:19;0.00;0.00;0.62;0.00;0.00;0.62;2.00;1.30;;;23.40;28.20;;;;;;2272698;60;20386;-58
2023/10/23 02:23:03;0.00;0.00;0.62;0.00;0.00;0.62;1.50;1.07;;;23.40;28.20;;;;;;2272930;60;20801;-58
2023/10/23 02:25:48;0.00;0.00;0.62;0.00;0.00;0.62;2.00;1.30;;;23.40;28.20;;;;;;2272875;60;20842;-59
2023/10/23 02:28:33;0.00;0.00;0.62;0.00;0.00;0.62;1.73;1.17;;;23.40;28.20;;;;;;2272402;60;20366;-60
2023/10/23 02:31:19;0.00;0.00;0.62;0.00;0.00;0.62;1.80;1.03;;;23.40;28.20;;;;;;2272753;60;20452;-58
2023/10/23 02:34:04;0.00;0.00;0.62;0.00;0.00;0.62;1.60;0.90;;;23.40;28.20;;;;;;2272883;60;20398;-59
2023/10/23 02:36:49;0.00;0.00;0.62;0.00;0.00;0.62;1.57;1.10;;;23.40;28.30;;;;;;2272906;60;20404;-63
2023/10/23 02:39:34;0.00;0.00;0.62;0.00;0.00;0.62;1.77;1.10;;;23.40;28.20;;;;;;2272172;60;20369;-61
2023/10/23 02:42:18;0.00;0.00;0.62;0.00;0.00;0.62;1.63;1.13;;;23.40;28.20;;;;;;2272755;60;20388;-61
2023/10/23 02:45:05;0.00;0.00;0.62;0.00;0.00;0.62;1.70;0.90;;;23.40;28.30;;;;;;2272853;60;20365;-59
2023/10/23 02:47:51;0.00;0.00;0.62;0.00;0.00;0.62;1.83;1.23;;;23.40;28.30;;;;;;2272637;60;20373;-60
2023/10/23 02:50:35;0.00;0.00;0.62;0.00;0.00;0.62;1.70;1.10;;;23.40;28.20;;;;;;2272752;60;20502;-58
2023/10/23 02:53:21;0.00;0.00;0.62;0.00;0.00;0.62;2.00;1.30;;;23.40;28.20;;;;;;2272947;60;20944;-59
2023/10/23 02:56:10;0.00;0.00;0.62;0.00;0.00;0.62;1.90;1.20;;;23.40;28.20;;;;;;2272355;61;20370;-60
2023/10/23 02:58:55;0.00;0.00;0.62;0.00;0.00;0.62;1.70;1.13;;;23.40;28.20;;;;;;2272220;60;20451;-62
2023/10/23 03:01:39;0.00;0.00;0.62;0.00;0.00;0.62;1.90;1.03;;;23.40;28.30;;;;;;2272686;60;20473;-59
2023/10/23 03:04:25;0.00;0.00;0.62;0.00;0.00;0.62;1.70;1.10;;;23.40;28.30;;;;;;2272240;61;20385;-61
2023/10/23 03:07:10;0.00;0.00;0.62;0.00;0.00;0.62;1.70;0.97;;;23.40;28.30;;;;;;2271803;60;20370;-62
2023/10/23 03:09:54;0.00;0.00;0.62;0.00;0.00;0.62;1.47;0.83;;;23.40;28.30;;;;;;2271870;60;20417;-59
2023/10/23 03:12:39;0.00;0.00;0.62;0.00;0.00;0.62;1.50;0.97;;;23.40;28.30;;;;;;2272789;61;20382;-59
2023/10/23 03:15:24;0.00;0.00;0.62;0.00;0.00;0.62;1.90;1.20;;;23.40;28.30;;;;;;2272587;60;20362;-59
2023/10/23 03:18:08;0.00;0.00;0.62;0.00;0.00;0.62;1.80;1.20;;;23.40;28.30;;;;;;2272044;60;20459;-59
2023/10/23 03:20:59;0.00;0.00;0.62;0.00;0.00;0.62;1.80;1.10;;;23.40;28.30;;;;;;2272748;60;20410;-58
2023/10/23 03:23:43;0.00;0.00;0.62;0.00;0.00;0.62;1.80;0.93;;;23.40;28.30;;;;;;2272747;60;20834;-61
2023/10/23 03:26:28;0.00;0.00;0.62;0.00;0.00;0.62;1.60;1.00;;;23.40;28.30;;;;;;2272639;60;20778;-62
2023/10/23 03:29:12;0.00;0.00;0.62;0.00;0.00;0.62;1.60;0.90;;;23.40;28.30;;;;;;2271891;60;20409;-61
2023/10/23 03:31:57;0.00;0.00;0.62;0.00;0.00;0.62;1.50;0.80;;;23.40;28.30;;;;;;2272186;60;20393;-61
2023/10/23 03:34:42;0.00;0.00;0.62;0.00;0.00;0.62;2.03;1.13;;;23.40;28.30;;;;;;2272322;60;20362;-58
2023/10/23 03:37:28;0.00;0.00;0.62;0.00;0.00;0.62;1.60;1.00;;;23.40;28.30;;;;;;2272593;60;20416;-60
2023/10/23 03:40:13;0.00;0.00;0.62;0.00;0.00;0.62;1.97;1.10;;;23.40;28.30;;;;;;2272209;60;20411;-60
2023/10/23 03:42:57;0.00;0.00;0.62;0.00;0.00;0.62;1.60;1.00;;;23.40;28.30;;;;;;2272051;60;20385;-57
2023/10/23 03:45:43;0.00;0.00;0.62;0.00;0.00;0.62;1.60;1.10;;;23.40;28.30;;;;;;2272594;60;20366;-59
2023/10/23 03:48:28;0.00;0.00;0.62;0.00;0.00;0.62;1.63;1.00;;;23.40;28.30;;;;;;2272299;60;20819;-60
2023/10/23 03:51:13;0.00;0.00;0.62;0.00;0.00;0.62;1.80;1.00;;;23.40;28.30;;;;;;2272586;60;20808;-61
2023/10/23 03:53:59;0.00;0.00;0.62;0.00;0.00;0.62;1.90;1.00;;;23.40;28.30;;;;;;2272613;60;20423;-59
2023/10/23 03:56:43;0.00;0.00;0.62;0.00;0.00;0.62;1.47;0.90;;;23.40;28.30;;;;;;2272448;60;20366;-59
2023/10/23 03:59:28;0.00;0.00;0.62;0.00;0.00;0.62;1.60;1.07;;;23.40;28.30;;;;;;2272315;60;20408;-61
2023/10/23 04:02:13;0.00;0.00;0.62;0.00;0.00;0.62;1.67;1.00;;;23.40;28.30;;;;;;2272321;60;20374;-60
2023/10/23 04:04:58;0.00;0.00;0.62;0.00;0.00;0.62;1.80;1.00;;;23.40;28.30;;;;;;2272414;60;20458;-60
2023/10/23 04:07:42;0.00;0.00;0.62;0.00;0.00;0.62;1.50;1.00;;;23.30;28.30;;;;;;2272556;61;20936;-61
2023/10/23 04:10:28;0.00;0.00;0.62;0.00;0.00;0.62;1.90;1.10;;;23.40;28.30;;;;;;2272608;60;20524;-60
2023/10/23 04:13:14;0.00;0.00;0.62;0.00;0.00;0.62;1.40;0.80;;;23.30;28.30;;;;;;2272486;60;20421;-61
2023/10/23 04:16:00;0.00;0.00;0.62;0.00;0.00;0.62;1.53;1.00;;;23.40;28.30;;;;;;2272634;60;20674;-59
2023/10/23 04:18:45;0.00;0.00;0.62;0.00;0.00;0.62;1.70;0.90;;;23.30;28.30;;;;;;2272032;60;20500;-57
2023/10/23 04:21:30;0.00;0.00;0.62;0.00;0.00;0.62;1.40;0.80;;;23.30;28.30;;;;;;2272609;61;20373;-58
2023/10/23 04:24:14;0.00;0.00;0.62;0.00;0.00;0.62;1.80;1.00;;;23.40;28.30;;;;;;2272407;60;20436;-59
2023/10/23 04:27:00;0.00;0.00;0.62;0.00;0.00;0.62;1.67;1.10;;;23.30;28.30;;;;;;2273247;60;20361;-61
2023/10/23 04:29:44;0.00;0.00;0.62;0.00;0.00;0.62;1.60;1.00;;;23.40;28.30;;;;;;2269599;61;20370;-61
2023/10/23 04:32:29;0.00;0.00;0.62;0.00;0.00;0.62;1.60;1.00;;;23.30;28.30;;;;;;2272694;61;20805;-60
2023/10/23 04:35:13;0.00;0.00;0.62;0.00;0.00;0.62;1.73;1.00;;;23.40;28.30;;;;;;2273207;61;20769;-60
2023/10/23 04:37:58;0.00;0.00;0.62;0.00;0.00;0.62;1.60;1.00;;;23.30;28.30;;;;;;2272943;61;20370;-58
2023/10/23 04:40:44;0.00;0.00;0.62;0.00;0.00;0.62;1.63;0.97;;;23.30;28.30;;;;;;2273208;61;20435;-60
2023/10/23 04:43:30;0.00;0.00;0.62;0.00;0.00;0.62;1.50;1.00;;;23.30;28.30;;;;;;2273393;61;20901;-61
2023/10/23 04:46:15;0.00;0.00;0.62;0.00;0.00;0.62;1.70;0.90;;;23.30;28.30;;;;;;2273044;61;20365;-60
2023/10/23 04:49:00;0.00;0.00;0.62;0.00;0.00;0.62;1.80;1.00;;;23.40;28.40;;;;;;2272763;61;20408;-57
2023/10/23 04:51:44;0.00;0.00;0.62;0.00;0.00;0.62;1.50;1.00;;;23.30;28.30;;;;;;2273282;61;20426;-61
2023/10/23 04:54:29;0.00;0.00;0.62;0.00;0.00;0.62;1.50;0.90;;;23.30;28.30;;;;;;2273199;61;20482;-60
2023/10/23 04:57:13;0.00;0.00;0.62;0.00;0.00;0.62;1.80;1.00;;;23.30;28.30;;;;;;2273208;61;20963;-60
2023/10/23 04:59:59;0.00;0.00;0.62;0.00;0.00;0.62;1.63;1.00;;;23.30;28.30;;;;;;2272863;61;20384;-61
2023/10/23 05:02:46;0.00;0.00;0.62;0.00;0.00;0.62;1.70;1.10;;;23.40;28.40;;;;;;2272949;61;20421;-61
2023/10/23 05:05:31;0.00;0.00;0.62;0.00;0.00;0.62;2.30;1.50;;;23.30;28.30;;;;;;2273054;61;20366;-59
2023/10/23 05:08:16;0.00;0.00;0.62;0.00;0.00;0.62;1.67;1.07;;;23.40;28.40;;;;;;2272916;61;20457;-62
2023/10/23 05:11:07;0.00;0.00;0.62;0.00;0.00;0.62;2.00;1.40;;;23.30;28.30;;;;;;2273126;61;20924;-61
2023/10/23 05:13:52;0.00;0.00;0.62;0.00;0.00;0.62;1.70;1.10;;;23.30;28.40;;;;;;2272877;61;20451;-60
2023/10/23 05:16:38;0.00;0.00;0.62;0.00;0.00;0.62;1.80;1.20;;;23.30;28.30;;;;;;2273255;61;20408;-60
2023/10/23 05:19:23;0.00;0.00;0.62;0.00;0.00;0.62;2.20;1.40;;;23.30;28.30;;;;;;2272604;61;20408;-61
2023/10/23 05:22:07;0.00;0.00;0.62;0.00;0.00;0.62;3.10;1.57;;;23.30;28.30;;;;;;2273112;61;20394;-61
2023/10/23 05:24:52;0.00;0.00;0.62;0.00;0.00;0.62;2.40;1.73;;;23.30;28.30;;;;;;2273031;61;20854;-60
2023/10/23 05:27:37;0.00;0.00;0.62;0.00;0.00;0.62;4.00;2.00;;;23.30;28.30;;;;;;2273151;61;20458;-60
2023/10/23 05:30:22;0.00;0.00;0.62;0.00;0.00;0.62;2.77;2.27;;;23.30;28.40;;;;;;2272981;61;20382;-61
2023/10/23 05:33:08;0.00;0.00;0.62;0.00;0.00;0.62;3.27;2.20;;;23.30;28.90;;;;;;2273034;61;20390;-58
2023/10/23 05:36:01;0.00;0.00;0.62;0.00;0.00;0.62;2.97;2.20;;;23.30;28.40;;;;;;2273137;61;20504;-59
2023/10/23 05:38:46;0.00;0.00;0.62;0.00;0.00;0.62;3.60;2.90;;;23.30;28.40;;;;;;2272647;61;20359;-61
2023/10/23 05:41:30;0.00;0.00;0.62;0.00;0.00;0.62;3.53;2.57;;;23.30;28.40;;;;;;2272829;61;20365;-60
2023/10/23 05:44:15;0.00;0.00;0.62;0.00;0.00;0.62;4.23;2.90;;;23.30;28.60;;;;;;2273065;61;20382;-56
2023/10/23 05:46:59;0.00;0.00;0.62;0.00;0.00;0.62;3.90;2.73;;;23.30;28.40;;;;;;2272747;61;20357;-61
2023/10/23 05:49:45;0.00;0.00;0.62;0.00;0.00;0.62;3.40;2.70;;;23.30;28.40;;;;;;2272661;61;20358;-59
2023/10/23 05:52:30;0.00;0.00;0.62;0.00;0.00;0.62;3.43;2.63;;;23.30;28.40;;;;;;2272966;61;20432;-61
2023/10/23 05:55:15;0.00;0.00;0.62;0.00;0.00;0.62;4.20;3.17;;;23.30;28.40;;;;;;2272772;61;20365;-59
2023/10/23 05:57:59;0.00;0.00;0.62;0.00;0.00;0.62;4.20;3.17;;;23.30;28.40;;;;;;2272208;61;20435;-61
2023/10/23 06:00:44;0.00;0.00;0.62;0.00;0.00;0.62;5.00;3.70;;;23.30;28.40;;;;;;2272919;61;20416;-59
2023/10/23 06:03:29;0.00;0.00;0.62;0.00;0.00;0.62;4.83;3.20;;;23.30;28.40;;;;;;2272877;61;20381;-60
2023/10/23 06:06:15;0.00;0.00;0.62;0.00;0.00;0.62;4.30;3.60;;;23.30;28.40;;;;;;2272997;61;20894;-58
2023/10/23 06:08:59;0.00;0.00;0.62;0.00;0.00;0.62;5.00;3.67;;;23.30;28.40;;;;;;2272115;61;20365;-61
2023/10/23 06:11:44;0.00;0.00;0.62;0.00;0.00;0.62;4.87;3.73;;;23.30;28.40;;;;;;2272916;61;20835;-61
2023/10/23 06:14:29;0.00;0.00;0.62;0.00;0.00;0.62;4.57;3.90;;;23.30;28.50;;;;;;2273037;61;20366;-61
2023/10/23 06:17:13;0.00;0.00;0.62;0.00;0.00;0.62;5.70;4.70;;;23.30;28.40;;;;;;2272706;61;20363;-61
2023/10/23 06:19:59;0.00;0.00;0.62;0.00;0.00;0.62;5.00;3.97;;;23.30;28.50;;;;;;2272512;61;20404;-61
2023/10/23 06:22:45;0.00;0.00;0.62;0.00;0.00;0.62;5.87;4.33;;;23.30;28.50;;;;;;2272955;61;21480;-60
2023/10/23 06:25:30;0.00;0.00;0.62;0.00;0.00;0.62;5.63;4.30;;;23.30;28.50;;;;;;2272825;61;20807;-61
2023/10/23 06:28:15;0.00;0.00;0.62;0.00;0.00;0.62;5.10;4.40;;;23.30;28.50;;;;;;2272182;61;20431;-60
2023/10/23 06:31:04;0.00;0.00;0.62;0.00;0.00;0.62;5.20;4.50;;;23.30;28.50;;;;;;2272896;61;20455;-60
2023/10/23 06:33:51;0.00;0.00;0.62;0.00;0.00;0.62;6.20;4.30;;;23.30;28.50;;;;;;2272788;61;20431;-60
2023/10/23 06:36:40;0.00;0.00;0.62;0.00;0.00;0.62;5.23;4.73;;;23.30;28.50;;;;;;2273016;61;20362;-61
2023/10/23 06:39:26;0.00;0.00;0.62;0.00;0.00;0.62;6.07;4.97;;;23.30;29.00;;;;;;2272480;61;20369;-60
2023/10/23 06:42:10;0.00;0.00;0.62;0.00;0.00;0.62;7.00;5.93;;;23.30;28.50;;;;;;2272949;61;20394;-60
2023/10/23 06:44:55;0.00;0.00;0.62;0.00;0.00;0.62;6.80;4.80;;;23.30;28.50;;;;;;2272939;61;20401;-61
2023/10/23 06:47:40;0.00;0.00;0.62;0.00;0.00;0.62;6.03;5.23;;;23.30;28.50;;;;;;2272723;60;20764;-60
2023/10/23 06:50:24;0.00;0.00;0.62;0.00;0.00;0.62;8.67;4.87;;;23.30;28.50;;;;;;2272589;61;20374;-57
2023/10/23 06:53:09;0.00;0.00;0.62;0.00;0.00;0.62;6.40;5.00;;;23.30;28.50;;;;;;2273050;61;20422;-60
2023/10/23 06:55:55;0.00;0.00;0.62;0.00;0.00;0.62;6.27;4.70;;;23.30;28.50;;;;;;2272464;61;20423;-59
2023/10/23 06:58:40;0.00;0.00;0.62;0.00;0.00;0.62;6.43;5.37;;;23.30;28.50;;;;;;2272376;61;20409;-61
2023/10/23 07:01:24;0.00;0.00;0.62;0.00;0.00;0.62;6.67;5.57;;;23.30;28.50;;;;;;2272818;61;20390;-61
2023/10/23 07:04:09;0.00;0.00;0.62;0.00;0.00;0.62;5.93;4.87;;;23.30;28.50;;;;;;2272643;61;20471;-59
2023/10/23 07:06:53;0.00;0.00;0.62;0.00;0.00;0.62;5.97;5.13;;;23.30;28.50;;;;;;2272761;61;20425;-58
2023/10/23 07:09:38;0.00;0.00;0.62;0.00;0.00;0.62;5.97;5.13;;;23.30;28.60;;;;;;2272363;61;20530;-60
2023/10/23 07:12:24;0.00;0.00;0.62;0.00;0.00;0.62;6.97;5.70;;;23.30;28.60;;;;;;2272592;61;20370;-64
2023/10/23 07:15:09;0.00;0.00;0.62;0.00;0.00;0.62;7.10;5.50;;;23.30;28.60;;;;;;2272792;61;20366;-61
2023/10/23 07:17:55;0.00;0.00;0.62;0.00;0.00;0.62;6.07;5.47;;;23.30;29.10;;;;;;2271903;61;20411;-60
2023/10/23 07:20:39;0.00;0.00;0.62;0.00;0.00;0.62;7.00;6.30;;;23.30;28.60;;;;;;2272549;61;20360;-62
2023/10/23 07:23:25;0.00;0.00;0.62;0.00;0.00;0.62;5.97;5.37;;;23.30;28.60;;;;;;2272713;61;20466;-63
2023/10/23 07:26:12;0.00;0.00;0.62;0.00;0.00;0.62;6.87;5.60;;;23.30;28.60;;;;;;2272744;61;20384;-62
2023/10/23 07:28:58;0.00;0.00;0.62;0.00;0.00;0.62;6.63;5.30;;;23.30;28.60;;;;;;2271977;61;20390;-61
2023/10/23 07:31:43;0.00;0.00;0.62;0.00;0.00;0.62;6.80;5.33;;;23.30;28.60;;;;;;2272512;61;20386;-60
2023/10/23 07:34:27;0.00;0.00;0.62;0.00;0.00;0.62;6.60;4.90;;;23.30;28.60;;;;;;2272780;61;20404;-60
2023/10/23 07:37:17;0.00;0.00;0.62;0.00;0.00;0.62;6.73;5.30;;;23.30;28.60;;;;;;2272774;61;20909;-57
2023/10/23 07:40:06;0.00;0.00;0.62;0.00;0.00;0.62;6.30;5.67;;;23.30;28.60;;;;;;2272331;61;20936;-57
2023/10/23 07:42:52;0.00;0.00;0.62;0.00;0.00;0.62;7.60;6.07;;;23.30;28.60;;;;;;2272876;61;20520;-61
2023/10/23 07:45:39;0.00;0.00;0.62;0.00;0.00;0.62;6.70;5.60;;;23.30;28.60;;;;;;2272456;61;20450;-60
2023/10/23 07:48:25;0.00;0.00;0.62;0.00;0.00;0.62;5.67;5.00;;;23.30;28.60;;;;;;2272009;60;20392;-61
2023/10/23 07:51:09;0.00;0.00;0.62;0.00;0.00;0.62;5.10;4.57;;;23.30;28.60;;;;;;2272692;60;20459;-59
2023/10/23 07:53:54;0.00;0.00;0.62;0.00;0.00;0.62;6.80;5.47;;;23.30;28.70;;;;;;2272477;61;20378;-61
2023/10/23 07:56:39;0.00;0.00;0.62;0.00;0.00;0.62;6.03;5.20;;;23.30;28.70;;;;;;2272688;60;20370;-60
2023/10/23 07:59:26;0.00;0.00;0.62;0.00;0.00;0.62;6.00;5.40;;;23.30;28.70;;;;;;2272250;60;20458;-61
2023/10/23 08:02:11;0.00;0.00;0.62;0.00;0.00;0.62;6.20;5.60;;;23.30;28.70;;;;;;2272646;60;20382;-62
2023/10/23 08:04:56;0.00;0.00;0.62;0.00;0.00;0.62;6.70;5.30;;;23.30;28.70;;;;;;2272583;61;20350;-58
2023/10/23 08:07:40;0.00;0.00;0.62;0.00;0.00;0.62;5.53;4.93;;;23.30;28.70;;;;;;2272274;60;20394;-60
2023/10/23 08:10:25;0.00;0.00;0.62;0.00;0.00;0.62;6.23;5.53;;;23.30;28.70;;;;;;2272880;60;20463;-60
2023/10/23 08:13:10;0.00;0.00;0.62;0.00;0.00;0.62;7.10;6.40;;;23.30;28.70;;;;;;2272573;60;20407;-60
2023/10/23 08:15:55;0.00;0.00;0.62;0.00;0.00;0.62;7.03;6.20;;;23.30;28.70;;;;;;2272345;60;20369;-59
2023/10/23 08:18:41;0.00;0.00;0.62;0.00;0.00;0.62;6.83;6.13;;;23.30;28.80;;;;;;2272276;60;20412;-61
2023/10/23 08:21:27;0.00;0.00;0.62;0.00;0.00;0.62;6.67;5.93;;;23.30;28.70;;;;;;2272677;60;20859;-60
2023/10/23 08:24:13;0.00;0.00;0.62;0.00;0.00;0.62;6.97;6.00;;;23.30;28.80;;;;;;2272575;60;20406;-60
2023/10/23 08:26:57;0.00;0.00;0.62;0.00;0.00;0.62;6.97;5.83;;;23.30;28.80;;;;;;2272811;60;20886;-62
2023/10/23 08:29:42;0.00;0.00;0.62;0.00;0.00;0.62;5.73;4.73;;;23.30;28.80;;;;;;2272103;60;20382;-59
2023/10/23 08:32:26;0.00;0.00;0.62;0.00;0.00;0.62;6.50;5.53;;;23.30;28.80;;;;;;2272363;60;20934;-61
2023/10/23 08:35:12;0.00;0.00;0.62;0.00;0.00;0.62;6.00;5.27;;;23.30;28.80;;;;;;2272528;61;20381;-58
2023/10/23 08:37:57;0.00;0.00;0.62;0.00;0.00;0.62;6.03;5.30;;;23.30;28.80;;;;;;2271981;60;20793;-61
2023/10/23 08:40:42;0.00;0.00;0.62;0.00;0.00;0.62;6.27;5.33;;;23.30;28.80;;;;;;2272512;60;20354;-59
2023/10/23 08:43:26;0.00;0.00;0.62;0.00;0.00;0.62;6.73;6.03;;;23.30;28.90;;;;;;2272571;60;20454;-58
2023/10/23 08:46:11;0.00;0.00;0.62;0.00;0.00;0.62;6.40;5.43;;;23.30;28.90;;;;;;2272265;60;20377;-58
2023/10/23 08:48:55;0.00;0.00;0.62;0.00;0.00;0.62;6.40;5.80;;;23.30;28.90;;;;;;2272041;60;21011;-61
2023/10/23 08:51:42;0.00;0.00;0.62;0.00;0.00;0.62;5.93;5.30;;;23.30;28.90;;;;;;2272327;60;20501;-61
2023/10/23 08:54:27;0.00;0.00;0.62;0.00;0.00;0.62;5.73;5.13;;;23.40;28.90;;;;;;2272255;60;20423;-57
2023/10/23 08:57:14;0.00;0.00;0.62;0.00;0.00;0.62;6.53;5.40;;;23.40;29.00;;;;;;2272287;60;20416;-62
2023/10/23 08:59:59;0.00;0.00;0.62;0.00;0.00;0.62;6.57;5.97;;;23.40;29.00;;;;;;2271488;60;20455;-62
2023/10/23 09:02:44;0.00;0.00;0.62;0.00;0.00;0.62;5.50;4.93;;;23.40;29.00;;;;;;2272321;61;20369;-61
2023/10/23 09:05:28;0.00;0.00;0.62;0.00;0.00;0.62;5.60;5.00;;;23.40;29.00;;;;;;2272249;60;20366;-60
2023/10/23 09:08:15;0.00;0.00;0.62;0.00;0.00;0.62;5.90;5.33;;;23.40;29.00;;;;;;2271883;60;20421;-62
2023/10/23 09:11:02;0.00;0.00;0.62;0.00;0.00;0.62;6.37;5.77;;;23.40;28.90;;;;;;2272357;60;20429;-59
2023/10/23 09:13:46;0.00;0.00;0.62;0.00;0.00;0.62;6.13;5.43;;;23.50;29.00;;;;;;2272982;60;20378;-58
2023/10/23 09:16:31;0.00;0.00;0.62;0.00;0.00;0.62;5.77;5.17;;;23.40;28.90;;;;;;2273128;60;20362;-59
2023/10/23 09:19:25;0.00;0.00;0.62;0.00;0.00;0.62;5.80;5.27;;;23.40;28.90;;;;;;2272377;60;20366;-60
2023/10/23 09:22:12;0.00;0.00;0.62;0.00;0.00;0.62;6.50;5.60;;;23.50;29.00;;;;;;2272864;60;20446;-58
2023/10/23 09:25:00;0.00;0.00;0.62;0.00;0.00;0.62;6.00;5.40;;;23.50;29.00;;;;;;2273164;60;20404;-60
2023/10/23 09:27:45;0.00;0.00;0.62;0.00;0.00;0.62;5.70;5.03;;;23.50;29.00;;;;;;2273160;61;20363;-61
2023/10/23 09:30:30;0.00;0.00;0.62;0.00;0.00;0.62;5.53;5.00;;;23.50;29.00;;;;;;2272840;60;20856;-58
2023/10/23 09:33:15;0.00;0.00;0.62;0.00;0.00;0.62;6.00;5.40;;;23.50;29.00;;;;;;2269881;61;20906;-60
2023/10/23 09:36:00;0.00;0.00;0.62;0.00;0.00;0.62;5.90;5.17;;;23.50;29.00;;;;;;2272466;61;20784;-59
2023/10/23 09:38:58;0.00;0.00;0.62;0.00;0.00;0.62;5.90;5.30;;;23.50;28.90;;;;;;2272585;60;20358;-60
2023/10/23 09:41:45;0.00;0.00;0.62;0.00;0.00;0.62;6.33;5.50;;;23.50;29.00;;;;;;2272833;60;20380;-60
2023/10/23 09:44:31;0.00;0.00;0.62;0.00;0.00;0.62;6.10;5.23;;;23.50;29.00;;;;;;2272793;60;20370;-59
2023/10/23 09:47:18;0.00;0.00;0.62;0.00;0.00;0.62;5.33;4.77;;;23.50;29.00;;;;;;2273105;60;20362;-61
2023/10/23 09:50:04;0.00;0.00;0.62;0.00;0.00;0.62;5.67;5.00;;;23.50;29.00;;;;;;2272542;60;20405;-60
2023/10/23 09:52:50;0.00;0.00;0.62;0.00;0.00;0.62;5.73;4.90;;;23.60;29.10;;;;;;2272495;60;20370;-57
2023/10/23 09:55:37;0.00;0.00;0.62;0.00;0.00;0.62;5.50;5.00;;;23.60;29.10;;;;;;2272698;60;20366;-58
2023/10/23 09:58:28;0.00;0.00;0.62;0.00;0.00;0.62;4.97;4.47;;;23.60;29.10;;;;;;2272280;60;20419;-61
2023/10/23 10:01:15;0.00;0.00;0.62;0.00;0.00;0.62;5.17;4.67;;;23.60;29.10;;;;;;2272690;60;20411;-60
2023/10/23 10:04:12;0.00;0.00;0.62;0.00;0.00;0.62;5.37;4.83;;;23.60;29.10;;;;;;2272859;60;20405;-59
2023/10/23 10:07:11;0.00;0.00;0.62;0.00;0.00;0.62;5.20;4.70;;;23.60;29.10;;;;;;2272543;60;20366;-61
2023/10/23 10:09:56;0.00;0.00;0.62;0.00;0.00;0.62;4.70;4.27;;;23.60;29.20;;;;;;2272788;60;20762;-62
2023/10/23 10:12:42;0.00;0.00;0.62;0.00;0.00;0.62;5.10;4.60;;;23.70;29.20;;;;;;2272793;60;20470;-63
2023/10/23 10:15:29;0.00;0.00;0.62;0.00;0.00;0.62;5.73;4.83;;;23.70;29.20;;;;;;2272561;60;20886;-60
2023/10/23 10:18:16;0.00;0.00;0.62;0.00;0.00;0.62;5.20;4.57;;;23.70;29.20;;;;;;2272516;60;20413;-60
2023/10/23 10:21:05;0.00;0.00;0.62;0.00;0.00;0.62;5.73;5.13;;;23.70;29.20;;;;;;2272984;60;20361;-60
2023/10/23 10:23:51;0.00;0.00;0.62;0.00;0.00;0.62;6.00;5.13;;;23.70;29.20;;;;;;2273116;60;20393;-58
2023/10/23 10:26:37;0.00;0.00;0.62;0.00;0.00;0.62;6.13;4.90;;;23.70;29.20;;;;;;2272932;60;20845;-60
2023/10/23 10:29:26;0.00;0.00;0.62;0.00;0.00;0.62;5.33;4.83;;;23.80;29.30;;;;;;2272374;60;20440;-60
2023/10/23 10:32:12;0.00;0.00;0.62;0.00;0.00;0.62;4.70;4.03;;;23.80;29.30;;;;;;2272099;60;20850;-59
2023/10/23 10:35:03;0.00;0.00;0.62;0.00;0.00;0.62;4.60;4.03;;;23.80;29.30;;;;;;2272690;60;20423;-60
2023/10/23 10:37:50;0.00;0.00;0.62;0.00;0.00;0.62;5.10;3.90;;;23.80;29.30;;;;;;2272762;60;20817;-60
2023/10/23 10:40:59;0.00;0.00;0.62;0.00;0.00;0.62;4.17;3.70;;;23.80;29.30;;;;;;2272755;61;20361;-61
2023/10/23 10:43:50;0.00;0.00;0.62;0.00;0.00;0.62;4.40;4.00;;;23.90;29.30;;;;;;2272657;60;20382;-58
2023/10/23 10:46:36;0.00;0.00;0.62;0.00;0.00;0.62;5.70;4.30;;;23.90;29.30;;;;;;2272869;60;20374;-58
2023/10/23 10:49:22;0.00;0.00;0.62;0.00;0.00;0.62;4.73;4.23;;;23.90;29.40;;;;;;2272332;60;20446;-60
2023/10/23 10:52:26;0.00;0.00;0.62;0.00;0.00;0.62;4.80;3.73;;;23.90;29.30;;;;;;2272747;60;20425;-60
2023/10/23 10:55:12;0.00;0.00;0.62;0.00;0.00;0.62;4.80;4.07;;;23.90;29.30;;;;;;2272935;61;20942;-61